Time;durP1;ratioP1;P1;durP2;ratioP2;P2;SDS_P1;SDS_P2;PMS_P1;PMS_P2;Temp;Humidity;BMP_temperature;BMP_pressure;BME280_temperature;BME280_humidity;BME280_pressure;Samples;Min_cycle;Max_cycle;Signal;HPM_P1;HPM_P2
2021/04/03 00:02:12;;;;;;;2.40;2.30;;;12.00;90.00;;;;;;4888785;29;20181;-70
2021/04/03 00:04:37;;;;;;;3.15;2.95;;;12.00;90.00;;;;;;4886767;29;20189;-71
2021/04/03 00:07:03;;;;;;;5.15;2.63;;;12.00;90.10;;;;;;4888212;29;20280;-73
2021/04/03 00:09:29;;;;;;;2.47;2.28;;;12.00;90.20;;;;;;4887582;29;20259;-72
2021/04/03 00:11:55;;;;;;;4.43;3.63;;;12.00;90.30;;;;;;4889021;29;20265;-72
2021/04/03 00:14:20;;;;;;;6.07;3.70;;;12.00;90.30;;;;;;4888829;29;20195;-71
2021/04/03 00:16:46;;;;;;;3.72;3.38;;;12.00;90.40;;;;;;4887932;29;20216;-72
2021/04/03 00:19:12;;;;;;;3.55;3.20;;;12.00;90.40;;;;;;4888460;29;20200;-71
2021/04/03 00:21:37;;;;;;;3.30;3.05;;;12.00;90.60;;;;;;4887979;29;20485;-72
2021/04/03 00:24:04;;;;;;;4.05;3.72;;;12.00;90.60;;;;;;4886801;29;20182;-72
2021/04/03 00:26:29;;;;;;;3.80;3.47;;;12.00;90.90;;;;;;4888834;29;20196;-71
2021/04/03 00:28:55;;;;;;;3.88;3.63;;;11.90;90.70;;;;;;4887104;29;20256;-71
2021/04/03 00:31:21;;;;;;;4.97;3.85;;;11.90;90.90;;;;;;4888909;29;20583;-71
2021/04/03 00:33:46;;;;;;;5.90;3.75;;;11.90;91.10;;;;;;4888740;29;20181;-72
2021/04/03 00:36:13;;;;;;;4.40;4.00;;;11.90;91.30;;;;;;4889147;29;20229;-72
2021/04/03 00:38:38;;;;;;;4.63;3.90;;;11.80;91.50;;;;;;4887030;29;20288;-72
2021/04/03 00:41:04;;;;;;;5.40;4.28;;;11.80;91.70;;;;;;4889579;29;20672;-72
2021/04/03 00:43:30;;;;;;;6.70;4.00;;;11.80;91.50;;;;;;4886240;29;20216;-72
2021/04/03 00:45:55;;;;;;;4.55;4.13;;;11.70;91.60;;;;;;4887543;29;20681;-72
2021/04/03 00:48:21;;;;;;;5.77;4.40;;;11.70;91.80;;;;;;4886807;29;20658;-72
2021/04/03 00:50:55;;;;;;;5.97;4.80;;;11.70;91.70;;;;;;4888519;29;20193;-72
2021/04/03 00:53:25;;;;;;;4.35;3.97;;;11.70;91.50;;;;;;4886294;29;20713;-72
2021/04/03 00:55:52;;;;;;;6.03;5.10;;;11.60;91.60;;;;;;4888277;29;20204;-72
2021/04/03 00:58:18;;;;;;;6.15;4.80;;;11.60;91.90;;;;;;4886871;29;20217;-72
2021/04/03 01:00:46;;;;;;;5.90;5.00;;;11.50;91.90;;;;;;4889338;29;20307;-72
2021/04/03 01:03:12;;;;;;;6.00;5.27;;;11.50;92.00;;;;;;4887312;29;20609;-72
2021/04/03 01:05:38;;;;;;;5.63;5.00;;;11.50;92.00;;;;;;4889483;29;20185;-72
2021/04/03 01:08:04;;;;;;;8.60;4.85;;;11.40;92.10;;;;;;4889000;29;20239;-71
2021/04/03 01:10:33;;;;;;;4.90;4.50;;;11.40;92.20;;;;;;4890259;29;20213;-71
2021/04/03 01:13:30;;;;;;;4.53;4.20;;;11.40;92.30;;;;;;4886964;29;20932;-71
2021/04/03 01:16:08;;;;;;;8.25;5.45;;;11.40;92.20;;;;;;4886223;29;20213;-72
2021/04/03 01:19:08;;;;;;;7.40;5.38;;;11.30;92.30;;;;;;4888704;29;20192;-71
2021/04/03 01:21:49;;;;;;;9.38;5.20;;;11.30;92.20;;;;;;4889620;29;20752;-71
2021/04/03 01:24:41;;;;;;;5.50;5.03;;;11.20;92.40;;;;;;4891127;29;20224;-73
2021/04/03 01:27:21;;;;;;;5.77;5.13;;;11.20;92.60;;;;;;4890750;29;20201;-71
2021/04/03 01:30:03;;;;;;;7.33;5.33;;;11.20;93.00;;;;;;4890094;29;20185;-72
2021/04/03 01:32:46;;;;;;;5.67;4.80;;;11.10;93.10;;;;;;4889143;29;20268;-71
2021/04/03 01:35:20;;;;;;;5.30;4.90;;;11.10;93.20;;;;;;4892483;29;20221;-72
2021/04/03 01:37:51;;;;;;;10.20;5.37;;;11.00;93.00;;;;;;4889716;29;20215;-71
2021/04/03 01:40:21;;;;;;;6.03;5.33;;;11.00;93.10;;;;;;4893131;29;20200;-72
2021/04/03 01:42:57;;;;;;;6.13;4.70;;;11.00;93.20;;;;;;4892100;29;20189;-71
2021/04/03 01:45:24;;;;;;;8.63;5.67;;;10.90;93.10;;;;;;4892818;29;20272;-71
2021/04/03 01:47:51;;;;;;;6.97;5.47;;;10.90;93.30;;;;;;4890606;29;20241;-71
2021/04/03 01:50:18;;;;;;;9.73;6.20;;;10.90;93.40;;;;;;4890828;29;20181;-71
2021/04/03 01:52:46;;;;;;;7.00;5.50;;;10.90;93.50;;;;;;4892567;29;20713;-71
2021/04/03 01:55:13;;;;;;;5.83;5.20;;;10.90;93.60;;;;;;4891617;29;20243;-71
2021/04/03 01:57:43;;;;;;;6.37;5.40;;;10.80;93.70;;;;;;4890679;29;20197;-71
2021/04/03 02:00:14;;;;;;;7.83;5.43;;;10.80;93.70;;;;;;4889676;29;20219;-71
2021/04/03 02:02:40;;;;;;;9.20;5.40;;;10.80;93.70;;;;;;4891675;29;20212;-71
2021/04/03 02:05:11;;;;;;;8.20;5.77;;;10.80;93.70;;;;;;4890145;29;20679;-71
2021/04/03 02:07:38;;;;;;;6.90;5.03;;;10.80;93.60;;;;;;4891462;29;20214;-71
2021/04/03 02:10:06;;;;;;;5.83;4.37;;;10.80;93.60;;;;;;4891160;29;20181;-71
2021/04/03 02:12:37;;;;;;;11.03;5.33;;;10.70;93.40;;;;;;4890297;29;20189;-71
2021/04/03 02:15:06;;;;;;;10.47;5.77;;;10.70;93.40;;;;;;4890982;29;20273;-71
2021/04/03 02:17:34;;;;;;;6.30;5.63;;;10.60;94.10;;;;;;4890160;29;20196;-71
2021/04/03 02:20:00;;;;;;;7.47;4.83;;;10.60;94.10;;;;;;4889919;29;20185;-71
2021/04/03 02:22:26;;;;;;;9.33;4.90;;;10.50;94.30;;;;;;4889534;29;20181;-71
2021/04/03 02:24:53;;;;;;;5.43;4.90;;;10.50;94.60;;;;;;4892002;29;20993;-71
2021/04/03 02:27:19;;;;;;;4.53;4.13;;;10.40;94.10;;;;;;4890876;29;20193;-71
2021/04/03 02:29:48;;;;;;;4.40;3.90;;;10.40;94.60;;;;;;4892007;29;20244;-72
2021/04/03 02:32:14;;;;;;;6.20;4.60;;;10.30;94.40;;;;;;4890850;29;20222;-72
2021/04/03 02:34:39;;;;;;;5.97;5.23;;;10.30;94.40;;;;;;4890440;29;20189;-72
2021/04/03 02:37:05;;;;;;;7.97;5.80;;;10.20;94.70;;;;;;4889708;29;20698;-72
2021/04/03 02:39:31;;;;;;;9.53;5.57;;;10.20;95.40;;;;;;4890156;29;20224;-72
2021/04/03 02:42:04;;;;;;;10.10;4.90;;;10.20;95.60;;;;;;4890661;29;20185;-72
2021/04/03 02:44:45;;;;;;;4.70;4.20;;;10.20;95.80;;;;;;4889769;29;20264;-73
2021/04/03 02:47:13;;;;;;;5.67;4.97;;;10.10;95.90;;;;;;4891775;29;20252;-72
2021/04/03 02:49:50;;;;;;;7.23;4.93;;;10.10;96.80;;;;;;4888281;29;20190;-72
2021/04/03 02:52:17;;;;;;;6.90;5.13;;;10.00;97.00;;;;;;4887413;29;20200;-72
2021/04/03 02:54:44;;;;;;;7.63;4.53;;;10.00;96.80;;;;;;4888559;29;20719;-72
2021/04/03 02:57:13;;;;;;;7.70;5.80;;;10.00;96.60;;;;;;4888734;29;20283;-72
2021/04/03 02:59:45;;;;;;;7.00;5.70;;;10.00;96.30;;;;;;4888624;29;20288;-72
2021/04/03 03:02:15;;;;;;;5.97;4.60;;;10.00;96.10;;;;;;4890884;29;20196;-71
2021/04/03 03:04:43;;;;;;;7.77;5.63;;;10.00;95.80;;;;;;4890675;29;20578;-72
2021/04/03 03:07:09;;;;;;;9.23;6.43;;;10.00;95.60;;;;;;4891558;29;20197;-72
2021/04/03 03:09:36;;;;;;;9.97;6.43;;;10.00;95.50;;;;;;4888503;29;20591;-71
2021/04/03 03:12:03;;;;;;;7.93;5.23;;;10.00;95.90;;;;;;4889203;29;20689;-71
2021/04/03 03:14:30;;;;;;;9.43;6.13;;;10.00;95.70;;;;;;4891109;29;20197;-72
2021/04/03 03:16:57;;;;;;;6.30;5.33;;;10.00;95.50;;;;;;4891089;29;20219;-71
2021/04/03 03:19:24;;;;;;;9.97;6.10;;;10.00;95.40;;;;;;4889507;29;20177;-72
2021/04/03 03:21:50;;;;;;;7.67;5.63;;;9.90;95.60;;;;;;4890646;29;20196;-72
2021/04/03 03:24:17;;;;;;;7.67;6.00;;;9.90;95.60;;;;;;4890767;29;20189;-72
2021/04/03 03:26:43;;;;;;;6.90;4.90;;;9.90;95.70;;;;;;4891556;29;20213;-72
2021/04/03 03:29:11;;;;;;;8.27;5.33;;;9.90;95.60;;;;;;4889804;29;20655;-71
2021/04/03 03:31:38;;;;;;;7.33;5.60;;;9.90;95.40;;;;;;4889793;29;20200;-71
2021/04/03 03:34:04;;;;;;;6.93;5.57;;;9.90;95.50;;;;;;4889473;29;20189;-73
2021/04/03 03:36:30;;;;;;;8.23;5.47;;;9.90;95.40;;;;;;4890166;29;20595;-71
2021/04/03 03:38:57;;;;;;;8.33;5.03;;;9.90;95.40;;;;;;4889583;29;20189;-71
2021/04/03 03:41:25;;;;;;;5.93;5.13;;;9.90;95.40;;;;;;4890713;29;20185;-71
2021/04/03 03:43:52;;;;;;;7.53;4.80;;;9.80;95.40;;;;;;4889039;29;20229;-72
2021/04/03 03:46:18;;;;;;;7.50;5.80;;;9.80;95.40;;;;;;4890053;29;20193;-71
2021/04/03 03:48:43;;;;;;;6.30;5.03;;;9.80;95.90;;;;;;4887072;29;20640;-71
2021/04/03 03:51:09;;;;;;;11.37;5.10;;;9.80;96.40;;;;;;4889391;29;20227;-72
2021/04/03 03:53:35;;;;;;;9.83;6.13;;;9.80;96.60;;;;;;4887430;29;20197;-71
2021/04/03 03:56:01;;;;;;;6.87;5.73;;;9.70;96.60;;;;;;4888347;29;20209;-71
2021/04/03 03:58:26;;;;;;;7.10;5.23;;;9.70;96.60;;;;;;4889051;29;20209;-71
2021/04/03 04:00:52;;;;;;;10.30;5.90;;;9.70;96.40;;;;;;4887480;29;20189;-71
2021/04/03 04:03:18;;;;;;;7.67;5.60;;;9.60;96.30;;;;;;4888713;29;20189;-72
2021/04/03 04:05:44;;;;;;;8.43;5.13;;;9.60;96.50;;;;;;4888774;29;20564;-72
2021/04/03 04:08:10;;;;;;;7.57;5.00;;;9.60;96.50;;;;;;4884919;29;20189;-71
2021/04/03 04:10:36;;;;;;;10.83;6.63;;;9.60;96.40;;;;;;4888815;29;20183;-71
2021/04/03 04:13:02;;;;;;;7.50;5.60;;;9.60;96.50;;;;;;4887862;29;20228;-71
2021/04/03 04:15:28;;;;;;;6.83;5.13;;;9.60;96.80;;;;;;4887781;29;20295;-72
2021/04/03 04:17:54;;;;;;;8.90;4.90;;;9.60;96.70;;;;;;4888132;29;20196;-72
2021/04/03 04:20:19;;;;;;;6.70;5.33;;;9.60;96.60;;;;;;4888390;29;20208;-72
2021/04/03 04:22:45;;;;;;;6.77;5.30;;;9.60;96.70;;;;;;4889868;29;20707;-72
2021/04/03 04:25:11;;;;;;;7.33;5.57;;;9.60;96.50;;;;;;4888693;29;20593;-71
2021/04/03 04:27:37;;;;;;;7.07;5.40;;;9.60;96.40;;;;;;4888919;29;20196;-71
2021/04/03 04:30:11;;;;;;;5.43;4.93;;;9.60;96.40;;;;;;4887903;29;20197;-71
2021/04/03 04:32:39;;;;;;;8.67;6.40;;;9.50;96.50;;;;;;4889992;29;20183;-71
2021/04/03 04:35:06;;;;;;;8.33;5.70;;;9.50;96.80;;;;;;4887011;29;20192;-71
2021/04/03 04:37:32;;;;;;;8.37;5.20;;;9.50;96.70;;;;;;4889479;29;20196;-71
2021/04/03 04:39:58;;;;;;;8.60;6.37;;;9.50;96.60;;;;;;4888663;29;20200;-71
2021/04/03 04:42:24;;;;;;;5.70;5.03;;;9.50;96.70;;;;;;4885306;29;20192;-71
2021/04/03 04:44:50;;;;;;;6.17;4.93;;;9.50;96.50;;;;;;4888460;29;20743;-71
2021/04/03 04:47:15;;;;;;;6.17;4.97;;;9.60;96.40;;;;;;4888501;29;20185;-71
2021/04/03 04:49:41;;;;;;;8.63;5.77;;;9.60;96.40;;;;;;4888046;29;20261;-71
2021/04/03 04:52:07;;;;;;;13.70;6.97;;;9.60;96.60;;;;;;4887840;29;20712;-71
2021/04/03 04:54:33;;;;;;;10.60;7.37;;;9.70;96.60;;;;;;4885520;29;20181;-71
2021/04/03 04:56:59;;;;;;;8.13;6.43;;;9.70;96.60;;;;;;4890664;29;20223;-71
2021/04/03 04:59:24;;;;;;;10.57;7.60;;;9.70;96.60;;;;;;4890149;29;20280;-71
2021/04/03 05:01:50;;;;;;;11.10;7.70;;;9.80;96.70;;;;;;4892613;29;20215;-70
2021/04/03 05:04:16;;;;;;;13.77;8.63;;;9.80;97.00;;;;;;4891689;29;20239;-70
2021/04/03 05:06:41;;;;;;;13.40;8.07;;;9.90;97.00;;;;;;4892003;29;20241;-72
2021/04/03 05:09:07;;;;;;;13.43;8.70;;;9.90;96.90;;;;;;4892456;29;20184;-71
2021/04/03 05:11:33;;;;;;;12.63;9.43;;;10.00;96.80;;;;;;4892090;29;20662;-70
2021/04/03 05:13:58;;;;;;;11.30;8.50;;;10.10;96.60;;;;;;4890922;29;20787;-72
2021/04/03 05:16:24;;;;;;;15.33;9.23;;;10.20;96.70;;;;;;4892862;29;20928;-71
2021/04/03 05:18:50;;;;;;;17.53;10.57;;;10.20;96.70;;;;;;4892556;29;20587;-71
2021/04/03 05:21:15;;;;;;;20.00;11.03;;;10.30;96.80;;;;;;4891461;29;20240;-71
2021/04/03 05:23:41;;;;;;;18.00;9.83;;;10.30;96.50;;;;;;4892449;29;20329;-71
2021/04/03 05:26:07;;;;;;;16.97;10.00;;;10.30;96.70;;;;;;4891150;29;20197;-71
2021/04/03 05:28:32;;;;;;;15.20;9.20;;;10.40;96.60;;;;;;4891731;29;20189;-71
2021/04/03 05:30:58;;;;;;;17.93;9.83;;;10.40;96.90;;;;;;4892607;29;20185;-71
2021/04/03 05:33:24;;;;;;;13.40;9.03;;;10.40;96.50;;;;;;4888667;29;20224;-71
2021/04/03 05:35:49;;;;;;;13.53;9.37;;;10.40;96.30;;;;;;4890065;29;20208;-71
2021/04/03 05:38:15;;;;;;;14.63;9.00;;;10.40;96.10;;;;;;4889873;29;20244;-71
2021/04/03 05:40:41;;;;;;;16.60;9.67;;;10.40;96.60;;;;;;4889207;29;20185;-71
2021/04/03 05:43:07;;;;;;;16.40;9.83;;;10.40;96.50;;;;;;4890259;29;20185;-71
2021/04/03 05:45:37;;;;;;;15.80;9.47;;;10.40;96.20;;;;;;4891409;29;20177;-71
2021/04/03 05:48:04;;;;;;;14.23;9.20;;;10.40;96.30;;;;;;4888866;29;20185;-71
2021/04/03 05:50:30;;;;;;;15.73;8.83;;;10.50;96.00;;;;;;4888975;29;20645;-71
2021/04/03 05:52:58;;;;;;;13.97;9.30;;;10.60;96.00;;;;;;4888880;29;20280;-70
2021/04/03 05:55:26;;;;;;;13.53;8.67;;;10.70;95.60;;;;;;4889911;29;20260;-72
2021/04/03 05:57:52;;;;;;;11.17;8.13;;;10.80;95.70;;;;;;4888437;29;20181;-72
2021/04/03 06:00:19;;;;;;;14.53;8.60;;;10.90;95.90;;;;;;4887760;29;20193;-72
2021/04/03 06:02:44;;;;;;;12.00;8.27;;;10.90;95.50;;;;;;4886486;29;20304;-72
2021/04/03 06:05:10;;;;;;;14.13;8.13;;;10.90;95.20;;;;;;4890792;29;20276;-71
2021/04/03 06:07:36;;;;;;;15.23;8.87;;;10.90;95.40;;;;;;4888875;29;20185;-71
2021/04/03 06:10:05;;;;;;;13.67;8.80;;;11.00;95.60;;;;;;4889897;29;20849;-72
2021/04/03 06:12:46;;;;;;;14.83;9.00;;;11.10;95.50;;;;;;4888610;29;20569;-72
2021/04/03 06:15:33;;;;;;;20.40;8.37;;;11.30;95.40;;;;;;4889206;29;20184;-71
2021/04/03 06:18:00;;;;;;;15.17;9.13;;;11.50;95.40;;;;;;4889218;29;20197;-72
2021/04/03 06:20:29;;;;;;;13.53;8.87;;;11.60;94.60;;;;;;4890245;29;20772;-72
2021/04/03 06:22:55;;;;;;;12.30;8.53;;;11.70;94.20;;;;;;4889566;29;20188;-72
2021/04/03 06:25:20;;;;;;;15.77;8.97;;;12.00;94.40;;;;;;4888477;29;20317;-72
2021/04/03 06:27:46;;;;;;;16.07;9.27;;;12.10;94.00;;;;;;4888062;29;20189;-71
2021/04/03 06:30:30;;;;;;;13.87;8.67;;;12.40;93.20;;;;;;4889205;29;20193;-70
2021/04/03 06:33:18;;;;;;;14.23;8.03;;;12.50;92.40;;;;;;4888262;29;20204;-72
2021/04/03 06:35:45;;;;;;;16.40;9.30;;;12.60;90.80;;;;;;4889639;29;20687;-71
2021/04/03 06:38:21;;;;;;;11.73;7.97;;;12.60;91.40;;;;;;4888563;29;20259;-71
2021/04/03 06:40:47;;;;;;;13.70;8.07;;;12.70;90.90;;;;;;4885900;29;20196;-72
2021/04/03 06:43:17;;;;;;;12.52;7.82;;;12.70;90.90;;;;;;4885662;29;20247;-71
2021/04/03 06:45:46;;;;;;;13.80;7.67;;;12.80;90.80;;;;;;4888578;29;20185;-71
2021/04/03 06:48:14;;;;;;;10.18;7.10;;;12.80;90.90;;;;;;4887141;29;20185;-71
2021/04/03 06:50:46;;;;;;;10.73;6.65;;;12.90;90.40;;;;;;4884593;29;20177;-72
2021/04/03 06:53:17;;;;;;;8.02;5.90;;;12.90;89.50;;;;;;4885694;29;20205;-73
2021/04/03 06:55:46;;;;;;;11.35;6.45;;;13.00;89.60;;;;;;4887985;29;20212;-73
2021/04/03 06:58:13;;;;;;;7.37;5.63;;;13.10;89.50;;;;;;4888721;29;20204;-72
2021/04/03 07:00:39;;;;;;;10.75;6.43;;;13.10;89.30;;;;;;4887312;29;20585;-72
2021/04/03 07:03:24;;;;;;;9.02;6.25;;;13.20;88.90;;;;;;4887612;29;20189;-72
2021/04/03 07:05:51;;;;;;;9.02;5.88;;;13.30;87.20;;;;;;4887523;29;20275;-71
2021/04/03 07:08:17;;;;;;;10.27;7.43;;;13.30;88.40;;;;;;4888843;29;20177;-72
2021/04/03 07:10:45;;;;;;;11.00;8.30;;;13.40;88.90;;;;;;4888690;29;20188;-72
2021/04/03 07:13:12;;;;;;;10.38;7.53;;;13.50;88.10;;;;;;4886680;29;20185;-72
2021/04/03 07:15:38;;;;;;;14.18;7.15;;;13.50;87.90;;;;;;4886794;29;20201;-72
2021/04/03 07:18:07;;;;;;;8.57;6.13;;;13.60;87.60;;;;;;4887440;29;20193;-72
2021/04/03 07:20:34;;;;;;;9.45;7.13;;;13.70;87.20;;;;;;4887726;29;20185;-72
2021/04/03 07:23:06;;;;;;;11.63;8.10;;;13.80;86.20;;;;;;4885332;29;20185;-72
2021/04/03 07:25:34;;;;;;;9.00;7.25;;;13.70;85.60;;;;;;4889490;29;20236;-72
2021/04/03 07:28:00;;;;;;;11.95;7.53;;;13.60;85.80;;;;;;4887775;29;20672;-72
2021/04/03 07:30:34;;;;;;;11.23;9.30;;;13.50;86.50;;;;;;4887592;29;20234;-72
2021/04/03 07:33:27;;;;;;;11.73;8.48;;;13.50;86.30;;;;;;4886890;29;20666;-71
2021/04/03 07:35:55;;;;;;;10.10;8.07;;;13.50;86.80;;;;;;4888067;29;20699;-71
2021/04/03 07:38:23;;;;;;;12.88;8.73;;;13.60;87.10;;;;;;4888587;29;20205;-72
2021/04/03 07:40:56;;;;;;;11.63;8.85;;;13.60;87.70;;;;;;4889081;29;20272;-71
2021/04/03 07:43:38;;;;;;;13.00;8.90;;;13.60;87.50;;;;;;4885802;29;20185;-71
2021/04/03 07:46:15;;;;;;;12.10;8.95;;;13.60;87.40;;;;;;4886145;29;20286;-72
2021/04/03 07:48:43;;;;;;;12.90;9.95;;;13.70;87.80;;;;;;4887465;29;20193;-71
2021/04/03 07:51:14;;;;;;;15.23;9.73;;;13.80;87.90;;;;;;4886911;29;20722;-72
2021/04/03 07:53:45;;;;;;;11.35;8.85;;;13.90;87.40;;;;;;4885698;29;20605;-72
2021/04/03 07:56:19;;;;;;;22.17;9.82;;;14.00;87.60;;;;;;4887459;29;20390;-72
2021/04/03 07:58:58;;;;;;;14.77;9.10;;;14.20;87.30;;;;;;4886970;29;20209;-72
2021/04/03 08:01:25;;;;;;;11.43;8.15;;;14.40;86.40;;;;;;4886548;29;20272;-72
2021/04/03 08:03:54;;;;;;;15.10;9.57;;;14.60;86.00;;;;;;4890136;29;20212;-71
2021/04/03 08:06:29;;;;;;;11.23;8.55;;;14.70;85.30;;;;;;4884561;29;20182;-72
2021/04/03 08:08:55;;;;;;;13.05;10.15;;;15.00;84.80;;;;;;4887328;29;20737;-72
2021/04/03 08:11:20;;;;;;;12.35;9.50;;;15.20;84.60;;;;;;4888080;29;20343;-72
2021/04/03 08:13:53;;;;;;;14.25;11.23;;;15.50;84.00;;;;;;4886568;29;20237;-72
2021/04/03 08:16:20;;;;;;;15.45;11.32;;;15.70;83.30;;;;;;4885960;29;20247;-73
2021/04/03 08:18:51;;;;;;;20.05;10.98;;;15.90;82.30;;;;;;4887851;29;20574;-69
2021/04/03 08:21:18;;;;;;;18.67;11.40;;;16.00;81.90;;;;;;4886192;29;20288;-69
2021/04/03 08:23:49;;;;;;;14.82;10.88;;;16.10;81.70;;;;;;4886291;29;20185;-73
2021/04/03 08:26:17;;;;;;;13.32;9.40;;;16.20;81.50;;;;;;4887359;29;20260;-72
2021/04/03 08:28:43;;;;;;;16.13;9.65;;;16.30;81.00;;;;;;4886395;29;20213;-68
2021/04/03 08:31:35;;;;;;;14.93;9.70;;;16.40;80.70;;;;;;4883626;29;20249;-67
2021/04/03 08:34:04;;;;;;;9.70;8.57;;;16.60;80.10;;;;;;4883124;29;20631;-68
2021/04/03 08:36:35;;;;;;;13.27;8.25;;;16.90;79.40;;;;;;4887017;29;20610;-68
2021/04/03 08:39:05;;;;;;;9.23;7.60;;;17.10;78.70;;;;;;4887660;29;20185;-67
2021/04/03 08:41:32;;;;;;;10.02;7.18;;;17.50;78.10;;;;;;4887097;29;20308;-68
2021/04/03 08:43:58;;;;;;;13.18;8.27;;;17.90;77.20;;;;;;4885453;29;20212;-67
2021/04/03 08:46:25;;;;;;;14.10;8.30;;;18.40;76.90;;;;;;4879913;29;20241;-67
2021/04/03 08:48:59;;;;;;;8.02;6.90;;;18.90;75.40;;;;;;4889474;29;20715;-68
2021/04/03 08:51:25;;;;;;;7.75;6.97;;;19.30;73.10;;;;;;4887360;29;20277;-68
2021/04/03 08:53:58;;;;;;;11.50;7.13;;;19.70;72.90;;;;;;4887266;29;20204;-68
2021/04/03 08:56:24;;;;;;;7.22;6.50;;;20.20;69.70;;;;;;4887783;29;20216;-69
2021/04/03 08:58:51;;;;;;;9.43;6.40;;;20.50;69.10;;;;;;4885700;29;20654;-66
2021/04/03 09:01:18;;;;;;;6.30;5.80;;;20.80;69.10;;;;;;4883170;29;20275;-73
2021/04/03 09:03:47;;;;;;;8.75;5.85;;;21.00;67.80;;;;;;4885223;29;20185;-68
2021/04/03 09:06:13;;;;;;;6.72;5.75;;;21.20;67.00;;;;;;4884108;29;20185;-68
2021/04/03 09:08:38;;;;;;;6.85;5.28;;;21.50;65.70;;;;;;4888899;29;20189;-67
2021/04/03 09:11:05;;;;;;;6.95;5.43;;;21.90;64.60;;;;;;4884329;29;20185;-68
2021/04/03 09:13:35;;;;;;;4.78;4.25;;;22.30;63.70;;;;;;4884330;29;20188;-67
2021/04/03 09:16:11;;;;;;;6.45;5.00;;;22.60;63.90;;;;;;4886660;29;20216;-68
2021/04/03 09:18:38;;;;;;;5.22;4.55;;;23.10;64.00;;;;;;4887725;29;20189;-68
2021/04/03 09:21:04;;;;;;;5.30;4.82;;;23.50;62.50;;;;;;4886900;29;20173;-68
2021/04/03 09:23:30;;;;;;;15.80;4.68;;;23.80;62.50;;;;;;4887936;29;20189;-67
2021/04/03 09:26:04;;;;;;;5.60;5.25;;;24.20;62.90;;;;;;4882315;29;20568;-67
2021/04/03 09:28:36;;;;;;;5.00;4.70;;;24.80;61.70;;;;;;4882832;29;20186;-67
2021/04/03 09:31:02;;;;;;;6.85;5.35;;;25.40;60.20;;;;;;4884886;29;20185;-68
2021/04/03 09:33:29;;;;;;;8.13;5.30;;;25.60;59.60;;;;;;4882785;29;20186;-68
2021/04/03 09:36:09;;;;;;;4.75;4.05;;;25.40;59.70;;;;;;4886242;29;20201;-67
2021/04/03 09:38:37;;;;;;;4.90;4.45;;;25.70;60.20;;;;;;4887394;29;20189;-68
2021/04/03 09:41:20;;;;;;;6.07;5.22;;;26.40;58.70;;;;;;4887697;29;20268;-68
2021/04/03 09:43:46;;;;;;;5.72;5.40;;;27.10;57.30;;;;;;4891474;29;20677;-67
2021/04/03 09:46:11;;;;;;;5.68;5.20;;;28.10;57.40;;;;;;4889933;29;20197;-68
2021/04/03 09:48:37;;;;;;;6.15;5.55;;;28.70;56.10;;;;;;4892857;29;20408;-68
2021/04/03 09:51:07;;;;;;;5.75;5.30;;;29.30;55.20;;;;;;4890889;29;20968;-68
2021/04/03 09:53:33;;;;;;;5.72;5.15;;;29.80;53.70;;;;;;4891404;29;20192;-68
2021/04/03 09:55:59;;;;;;;7.03;5.38;;;30.30;53.00;;;;;;4892614;29;20638;-68
2021/04/03 09:58:26;;;;;;;5.72;4.35;;;30.70;52.60;;;;;;4894544;29;20188;-67
2021/04/03 10:00:53;;;;;;;5.63;5.13;;;31.00;52.00;;;;;;4890197;29;20189;-68
2021/04/03 10:03:19;;;;;;;5.55;5.13;;;30.70;51.90;;;;;;4891848;29;20183;-69
2021/04/03 10:05:45;;;;;;;5.80;5.30;;;29.90;51.40;;;;;;4892430;29;20189;-66
2021/04/03 10:08:11;;;;;;;6.15;4.90;;;29.10;51.80;;;;;;4888651;29;20174;-69
2021/04/03 10:10:39;;;;;;;4.97;4.68;;;28.30;53.60;;;;;;4888405;29;20268;-68
2021/04/03 10:13:05;;;;;;;6.35;5.82;;;27.90;54.60;;;;;;4890369;29;20177;-67
2021/04/03 10:15:31;;;;;;;6.28;5.53;;;27.40;55.80;;;;;;4890958;29;20633;-68
2021/04/03 10:17:56;;;;;;;5.80;5.50;;;27.00;56.20;;;;;;4890327;29;20189;-68
2021/04/03 10:20:22;;;;;;;16.67;5.90;;;26.60;57.30;;;;;;4892539;29;20264;-68
2021/04/03 10:22:49;;;;;;;5.97;5.47;;;26.10;57.70;;;;;;4892194;29;20189;-68
2021/04/03 10:25:15;;;;;;;7.13;6.07;;;25.40;58.00;;;;;;4891049;29;20262;-67
2021/04/03 10:27:41;;;;;;;5.63;5.07;;;24.70;59.10;;;;;;4891221;29;20223;-68
2021/04/03 10:30:07;;;;;;;5.72;5.22;;;24.00;59.50;;;;;;4891303;29;20674;-67
2021/04/03 10:32:33;;;;;;;7.53;5.85;;;23.50;60.90;;;;;;4891712;29;20280;-67
2021/04/03 10:34:59;;;;;;;6.07;5.20;;;23.00;61.90;;;;;;4891698;29;20300;-67
2021/04/03 10:37:25;;;;;;;7.80;5.22;;;22.70;62.40;;;;;;4892758;29;20732;-67
2021/04/03 10:39:51;;;;;;;5.30;4.82;;;22.40;63.10;;;;;;4888857;29;20887;-67
2021/04/03 10:42:17;;;;;;;7.25;4.57;;;22.00;63.30;;;;;;4891134;29;20220;-68
2021/04/03 10:44:42;;;;;;;5.43;5.03;;;21.80;63.30;;;;;;4889679;29;20205;-68
2021/04/03 10:47:08;;;;;;;6.97;5.75;;;21.60;63.90;;;;;;4892224;29;20200;-68
2021/04/03 10:49:34;;;;;;;5.85;5.50;;;21.50;64.10;;;;;;4889330;29;20197;-67
2021/04/03 10:52:00;;;;;;;7.35;6.63;;;21.30;64.70;;;;;;4887831;29;20193;-67
2021/04/03 10:54:26;;;;;;;9.93;7.72;;;20.90;65.40;;;;;;4886824;29;20185;-66
2021/04/03 10:56:52;;;;;;;14.00;9.27;;;20.10;70.80;;;;;;4887986;29;20225;-67
2021/04/03 10:59:17;;;;;;;9.23;7.18;;;18.60;76.80;;;;;;4885727;29;20192;-66
2021/04/03 11:01:43;;;;;;;7.72;7.03;;;17.80;78.20;;;;;;4887997;29;20185;-67
2021/04/03 11:04:09;;;;;;;8.20;7.32;;;17.50;78.30;;;;;;4886881;29;20191;-68
2021/04/03 11:06:35;;;;;;;7.78;6.40;;;17.20;79.10;;;;;;4880123;29;20193;-68
2021/04/03 11:09:01;;;;;;;7.90;6.70;;;16.80;80.90;;;;;;4886909;29;20579;-68
2021/04/03 11:11:27;;;;;;;7.68;5.57;;;16.50;81.10;;;;;;4887187;29;20568;-72
2021/04/03 11:13:53;;;;;;;7.35;5.25;;;16.20;81.60;;;;;;4888549;29;20212;-73
2021/04/03 11:16:18;;;;;;;9.73;4.15;;;15.90;81.70;;;;;;4889719;29;20220;-75
2021/04/03 11:18:44;;;;;;;6.30;3.83;;;15.80;81.40;;;;;;4887543;29;20220;-74
2021/04/03 11:21:10;;;;;;;4.80;3.13;;;15.70;80.90;;;;;;4882072;29;20808;-74
2021/04/03 11:23:36;;;;;;;3.10;2.90;;;15.40;80.90;;;;;;4879324;29;20192;-73
2021/04/03 11:26:02;;;;;;;3.75;2.83;;;15.30;81.50;;;;;;4887177;29;20193;-73
2021/04/03 11:28:27;;;;;;;3.15;3.05;;;15.20;81.00;;;;;;4885427;29;20300;-73
2021/04/03 11:30:53;;;;;;;3.42;2.85;;;15.10;81.70;;;;;;4888124;29;20601;-71
2021/04/03 11:33:19;;;;;;;2.97;2.60;;;15.00;82.30;;;;;;4881441;29;20733;-71
2021/04/03 11:35:45;;;;;;;2.22;2.00;;;14.80;81.10;;;;;;4887964;29;20284;-71
2021/04/03 11:38:12;;;;;;;3.13;2.92;;;14.60;80.70;;;;;;4888026;29;20260;-72
2021/04/03 11:40:38;;;;;;;4.05;3.22;;;14.40;82.40;;;;;;4888897;29;20196;-72
2021/04/03 11:43:04;;;;;;;4.60;3.50;;;14.20;83.50;;;;;;4887776;29;20193;-72
2021/04/03 11:45:30;;;;;;;4.53;3.55;;;14.10;84.20;;;;;;4888054;29;20320;-72
2021/04/03 11:47:56;;;;;;;4.85;3.83;;;14.00;84.60;;;;;;4889071;29;20271;-72
2021/04/03 11:50:22;;;;;;;3.97;3.45;;;14.00;86.00;;;;;;4887686;29;20310;-72
2021/04/03 11:52:48;;;;;;;3.08;2.22;;;13.90;85.40;;;;;;4887853;29;20201;-73
2021/04/03 11:55:16;;;;;;;3.50;3.30;;;13.90;84.30;;;;;;4890357;29;20838;-73
2021/04/03 11:57:43;;;;;;;4.40;4.07;;;13.90;85.10;;;;;;4888564;29;20212;-73
2021/04/03 12:00:10;;;;;;;3.85;3.53;;;13.90;85.60;;;;;;4888394;29;20208;-73
2021/04/03 12:02:37;;;;;;;6.32;3.70;;;14.00;86.50;;;;;;4888891;29;20194;-72
2021/04/03 12:05:04;;;;;;;6.18;4.50;;;14.00;86.40;;;;;;4886257;29;20208;-72
2021/04/03 12:07:35;;;;;;;4.15;3.75;;;13.90;86.80;;;;;;4888168;29;20247;-73
2021/04/03 12:10:03;;;;;;;3.25;2.60;;;13.80;87.70;;;;;;4887192;29;21349;-73
2021/04/03 12:12:28;;;;;;;3.03;2.83;;;13.60;85.70;;;;;;4888143;29;20663;-72
2021/04/03 12:14:54;;;;;;;2.95;2.78;;;13.60;85.60;;;;;;4888793;29;20196;-72
2021/04/03 12:17:20;;;;;;;4.53;3.65;;;13.60;86.50;;;;;;4888312;29;20353;-72
2021/04/03 12:19:46;;;;;;;4.97;3.75;;;13.70;88.00;;;;;;4887606;29;20783;-72
2021/04/03 12:22:11;;;;;;;3.95;3.42;;;13.70;88.10;;;;;;4886558;29;20196;-72
2021/04/03 12:24:37;;;;;;;3.40;3.13;;;13.70;87.90;;;;;;4888138;29;20189;-72
2021/04/03 12:27:03;;;;;;;3.38;3.10;;;13.80;87.70;;;;;;4887711;29;20185;-72
2021/04/03 12:29:29;;;;;;;6.00;3.25;;;13.80;87.20;;;;;;4887930;29;20670;-73
2021/04/03 12:31:55;;;;;;;3.55;3.25;;;13.80;88.40;;;;;;4888597;29;20231;-73
2021/04/03 12:34:20;;;;;;;5.63;4.30;;;13.90;89.60;;;;;;4888675;29;20181;-71
2021/04/03 12:36:46;;;;;;;6.57;4.05;;;13.80;89.80;;;;;;4888355;29;20746;-71
2021/04/03 12:39:11;;;;;;;5.40;4.80;;;13.80;89.90;;;;;;4891061;29;20225;-71
2021/04/03 12:41:37;;;;;;;4.50;4.10;;;13.80;90.70;;;;;;4887645;29;20701;-72
2021/04/03 12:44:03;;;;;;;8.68;3.60;;;13.70;89.90;;;;;;4887597;29;21552;-71
2021/04/03 12:46:29;;;;;;;7.35;4.07;;;13.80;90.30;;;;;;4886060;29;20221;-71
2021/04/03 12:48:54;;;;;;;3.92;3.55;;;13.80;89.90;;;;;;4885762;29;20196;-73
2021/04/03 12:51:20;;;;;;;5.10;4.60;;;13.90;89.40;;;;;;4888410;29;20193;-73